Mauston, WI

4:39 PM CST on January 20, 2017 (GMT -0600)
Juneau County Weather | | Change Station

Elev 873 ft 43.80 °N, 90.07 °W | Updated 12 seconds ago

Fog
Fog
35.8 °F
Feels Like 36 °F
N
0.0
Wind Variable Wind from SE
Gusts 1.2 mph

Today
High -- | Low -- °F
--% Chance of Precip.
Yesterday
High -- | Low -- °F
Precip. -- in
Pressure 29.62 in
Visibility 2.0 miles
Clouds Overcast 400 ft
Windchill 36 °F
Dew Point 36 °F
Humidity 100%
Rainfall 0.09 in
Snow Depth Not available.
7:27 AM 4:55 PM
Last Quarter, 40% visible
SPECI KVOK 202224Z AUTO 11005KT 2SM BR OVC004 02/01 A2962 RMK AO2 DZE2158
Pressure 29.62 in
Visibility 2.0 miles
Clouds Overcast 400 ft
Windchill 36 °F
Dew Point 36 °F
Humidity 100%
Rainfall 0.09 in
Snow Depth Not available.
7:27 AM 4:55 PM
Last Quarter, 40% visible
SPECI KVOK 202224Z AUTO 11005KT 2SM BR OVC004 02/01 A2962 RMK AO2 DZE2158

Get Your Daily Forecast Email!

Thanks for signing up!

Be on the lookout for a verification email in your inbox.

You'll start receiving the daily forecast at 8 AM.

×

10-Day Weather Forecast

Almanac

Astronomy

Jan. 20, 2017 Rise Set
Actual Time
Civil Twilight
Nautical Twilight
Astronomical Twilight
Moon
Length of Visible Light
Length of Day
Tomorrow will be .
, % of the Moon is Illuminated

Today's Extremes

State Highs State Lows

Community

WunderPhotos

Upload Photos

1,962,540 photos uploaded!

WunderBlog® & News

Nearby

Air Quality

  Air Quality AQ Index Pollutant
Not available.

Snow Depth

Station Depth Elevation

Earthquake Activity

City Distance Mag. Time & Date
Minimum magnitude displayed is 2.5.

Coastal Water Temperatures

Place Temperature

Stations

Nearby Weather Stations

Station Location Temp. Windchill Dew Point Humidity Wind Precip. Elev Updated Type
                   

Watches & Warnings

There are currently no watches in effect.